createdAt,value
2023-05-25T00:00:32.301Z,101959.23
2023-05-25T00:01:34.096Z,101958.13
2023-05-25T00:02:34.103Z,101957.88
2023-05-25T00:03:34.869Z,101956.89
2023-05-25T00:04:35.592Z,101956.13
2023-05-25T00:05:36.151Z,101955.28
2023-05-25T00:06:37.080Z,101954.28
2023-05-25T00:07:37.912Z,101953.27
2023-05-25T00:08:38.571Z,101952.85
2023-05-25T00:09:39.264Z,101952.41
2023-05-25T00:10:39.996Z,101951.58
2023-05-25T00:10:48.602Z,101947.50
2023-05-25T00:11:49.439Z,101946.91
2023-05-25T00:12:50.101Z,101946.77
2023-05-25T00:13:50.641Z,101946.25
2023-05-25T00:14:51.081Z,101946.09
2023-05-25T00:15:51.922Z,101945.84
2023-05-25T00:16:52.021Z,101945.86
2023-05-25T00:17:52.216Z,101945.77
2023-05-25T00:18:52.684Z,101946.20
2023-05-25T00:19:53.182Z,101945.91
2023-05-25T00:20:53.600Z,101946.09
2023-05-25T00:21:55.159Z,101945.59
2023-05-25T00:22:54.612Z,101945.78
2023-05-25T00:23:56.419Z,101946.05
2023-05-25T00:24:56.093Z,101946.17
2023-05-25T00:25:56.664Z,101946.27
2023-05-25T00:26:57.525Z,101945.94
2023-05-25T00:27:57.579Z,101945.55
2023-05-25T00:28:58.358Z,101945.22
2023-05-25T00:29:59.062Z,101944.98
2023-05-25T00:30:59.694Z,101944.69
2023-05-25T00:32:01.389Z,101943.77
2023-05-25T00:33:00.908Z,101943.26
2023-05-25T00:34:01.438Z,101942.69
2023-05-25T00:35:02.853Z,101942.12
2023-05-25T00:36:02.293Z,101941.80
2023-05-25T00:37:02.417Z,101941.37
2023-05-25T00:38:03.050Z,101940.46
2023-05-25T00:39:03.470Z,101940.05
2023-05-25T00:40:03.806Z,101939.92
2023-05-25T00:41:04.281Z,101939.01
2023-05-25T00:42:05.106Z,101938.03
2023-05-25T00:43:05.376Z,101937.21
2023-05-25T00:44:06.202Z,101936.77
2023-05-25T00:44:16.286Z,101919.08
2023-05-25T00:45:17.116Z,101918.64
2023-05-25T00:46:17.950Z,101918.76
2023-05-25T00:47:18.459Z,101918.84
2023-05-25T00:48:19.019Z,101918.83
2023-05-25T00:49:19.821Z,101918.60
2023-05-25T00:50:20.317Z,101918.60
2023-05-25T00:51:20.931Z,101918.52
2023-05-25T00:52:21.791Z,101917.77
2023-05-25T00:53:22.243Z,101917.59
2023-05-25T00:54:22.735Z,101917.03
2023-05-25T00:55:23.417Z,101916.19
2023-05-25T00:56:23.838Z,101916.04
2023-05-25T00:57:24.735Z,101915.36
2023-05-25T00:58:25.212Z,101914.54
2023-05-25T00:59:26.063Z,101913.35
2023-05-25T01:00:27.496Z,101912.28
2023-05-25T01:01:26.936Z,101911.54
2023-05-25T01:02:27.413Z,101910.46
2023-05-25T01:03:28.259Z,101909.28
2023-05-25T01:04:28.595Z,101908.11
2023-05-25T01:05:29.028Z,101906.72
2023-05-25T01:06:29.562Z,101905.90
2023-05-25T01:07:30.168Z,101904.39
2023-05-25T01:08:31.651Z,101903.55
2023-05-25T01:09:31.274Z,101901.97
2023-05-25T01:10:32.958Z,101900.98
2023-05-25T01:11:32.544Z,101900.04
2023-05-25T01:12:33.292Z,101898.31
2023-05-25T01:13:34.062Z,101897.06
2023-05-25T01:14:35.016Z,101896.09
2023-05-25T01:15:35.439Z,101894.84
2023-05-25T01:16:36.218Z,101893.84
2023-05-25T01:17:36.409Z,101891.91
2023-05-25T01:18:37.031Z,101890.18
2023-05-25T01:18:49.112Z,101871.55
2023-05-25T01:20:01.599Z,101871.22
2023-05-25T01:20:50.252Z,101870.20
2023-05-25T01:21:50.687Z,101869.61
2023-05-25T01:22:51.129Z,101869.44
2023-05-25T01:23:51.639Z,101868.55
2023-05-25T01:24:52.247Z,101867.61
2023-05-25T01:25:52.778Z,101866.34
2023-05-25T01:26:53.297Z,101865.53
2023-05-25T01:27:54.497Z,101864.27
2023-05-25T01:28:54.000Z,101862.66
2023-05-25T01:29:54.484Z,101861.66
2023-05-25T01:30:54.983Z,101859.81
2023-05-25T01:31:56.523Z,101858.30
2023-05-25T01:32:55.976Z,101857.21
2023-05-25T01:33:56.466Z,101856.02
2023-05-25T01:34:58.035Z,101855.11
2023-05-25T01:35:57.861Z,101853.83
2023-05-25T01:36:58.352Z,101852.55
2023-05-25T01:37:59.247Z,101851.61
2023-05-25T01:38:59.934Z,101850.34
2023-05-25T01:40:00.635Z,101849.17
2023-05-25T01:41:01.217Z,101848.56
2023-05-25T01:42:02.054Z,101847.80
2023-05-25T01:43:02.725Z,101847.47
2023-05-25T01:44:03.442Z,101847.28
2023-05-25T01:45:04.444Z,101846.95
2023-05-25T01:46:05.116Z,101847.09
2023-05-25T01:47:05.649Z,101846.84
2023-05-25T01:48:06.528Z,101846.62
2023-05-25T01:49:07.162Z,101845.86
2023-05-25T01:50:07.765Z,101845.36
2023-05-25T01:50:17.409Z,101841.20
2023-05-25T01:51:17.859Z,101840.78
2023-05-25T01:52:18.654Z,101840.70
2023-05-25T01:53:19.502Z,101840.61
2023-05-25T01:54:20.055Z,101839.84
2023-05-25T01:55:21.710Z,101839.28
2023-05-25T01:56:21.329Z,101839.12
2023-05-25T01:57:21.990Z,101838.62
2023-05-25T01:58:22.804Z,101838.34
2023-05-25T01:59:23.570Z,101838.02
2023-05-25T02:00:24.384Z,101837.43
2023-05-25T02:01:25.252Z,101836.53
2023-05-25T02:02:26.002Z,101835.92
2023-05-25T02:03:26.797Z,101834.83
2023-05-25T02:04:27.607Z,101833.66
2023-05-25T02:05:28.359Z,101832.96
2023-05-25T02:06:29.078Z,101832.12
2023-05-25T02:07:30.026Z,101831.14
2023-05-25T02:08:30.753Z,101830.16
2023-05-25T02:09:30.902Z,101829.56
2023-05-25T02:10:31.743Z,101828.38
2023-05-25T02:11:32.553Z,101827.80
2023-05-25T02:12:33.265Z,101826.30
2023-05-25T02:13:34.002Z,101824.80
2023-05-25T02:14:34.901Z,101823.92
2023-05-25T02:15:35.889Z,101822.41
2023-05-25T02:16:36.505Z,101821.19
2023-05-25T02:17:36.975Z,101820.25
2023-05-25T02:18:37.874Z,101818.84
2023-05-25T02:19:37.943Z,101818.18
2023-05-25T02:21:20.774Z,101817.44
2023-05-25T02:22:21.424Z,101815.61
2023-05-25T02:22:30.045Z,101799.09
2023-05-25T02:23:30.990Z,101799.01
2023-05-25T02:24:31.471Z,101798.50
2023-05-25T02:25:31.935Z,101797.83
2023-05-25T02:26:32.434Z,101797.83
2023-05-25T02:27:33.071Z,101797.66
2023-05-25T02:28:33.525Z,101797.66
2023-05-25T02:29:33.998Z,101797.58
2023-05-25T02:30:34.748Z,101797.52
2023-05-25T02:31:35.628Z,101797.27
2023-05-25T02:32:35.677Z,101797.17
2023-05-25T02:33:36.221Z,101797.08
2023-05-25T02:34:36.840Z,101796.69
2023-05-25T02:35:37.686Z,101797.70
2023-05-25T02:36:38.370Z,101798.03
2023-05-25T02:37:39.314Z,101798.44
2023-05-25T02:38:39.556Z,101799.55
2023-05-25T02:39:40.290Z,101800.38
2023-05-25T02:40:41.066Z,101801.16
2023-05-25T02:41:41.677Z,101801.99
2023-05-25T02:42:42.392Z,101802.02
2023-05-25T02:43:42.859Z,101802.94
2023-05-25T02:44:43.418Z,101803.59
2023-05-25T02:45:44.024Z,101803.77
2023-05-25T02:46:44.494Z,101804.16
2023-05-25T02:47:45.138Z,101805.23
2023-05-25T02:48:45.540Z,101805.33
2023-05-25T02:49:46.039Z,101805.84
2023-05-25T02:50:46.483Z,101806.61
2023-05-25T02:51:47.068Z,101807.30
2023-05-25T02:52:47.814Z,101807.13
2023-05-25T02:53:48.212Z,101807.30
2023-05-25T02:54:48.747Z,101807.38
2023-05-25T02:55:48.944Z,101807.15
2023-05-25T02:56:49.936Z,101806.87
2023-05-25T02:56:59.146Z,101814.08
2023-05-25T02:57:59.906Z,101813.58
2023-05-25T02:59:00.505Z,101813.08
2023-05-25T03:00:01.025Z,101813.00
2023-05-25T03:01:01.942Z,101812.23
2023-05-25T03:02:03.573Z,101812.49
2023-05-25T03:03:03.679Z,101811.83
2023-05-25T03:04:03.839Z,101810.98
2023-05-25T03:05:04.839Z,101809.87
2023-05-25T03:06:04.523Z,101808.86
2023-05-25T03:07:05.167Z,101807.88
2023-05-25T03:08:05.705Z,101806.78
2023-05-25T03:09:06.180Z,101806.39
2023-05-25T03:10:06.893Z,101805.38
2023-05-25T03:11:07.453Z,101804.61
2023-05-25T03:12:08.147Z,101804.78
2023-05-25T03:13:08.780Z,101804.80
2023-05-25T03:14:09.316Z,101804.05
2023-05-25T03:15:09.420Z,101804.22
2023-05-25T03:16:09.975Z,101804.14
2023-05-25T03:17:10.872Z,101803.41
2023-05-25T03:18:11.389Z,101802.89
2023-05-25T03:19:12.089Z,101802.99
2023-05-25T03:20:12.639Z,101803.00
2023-05-25T03:21:13.219Z,101802.95
2023-05-25T03:22:13.979Z,101803.13
2023-05-25T03:23:14.416Z,101802.64
2023-05-25T03:24:14.954Z,101802.70
2023-05-25T03:25:15.474Z,101802.63
2023-05-25T03:26:16.123Z,101803.16
2023-05-25T03:27:16.829Z,101803.16
2023-05-25T03:28:17.606Z,101802.93
2023-05-25T03:29:18.368Z,101802.92
2023-05-25T03:30:19.016Z,101802.44
2023-05-25T03:30:27.652Z,101799.27
2023-05-25T03:31:28.572Z,101798.60
2023-05-25T03:32:29.295Z,101797.43
2023-05-25T03:33:29.288Z,101796.98
2023-05-25T03:34:30.077Z,101795.98
2023-05-25T03:35:30.866Z,101795.64
2023-05-25T03:36:31.869Z,101794.83
2023-05-25T03:37:32.653Z,101794.06
2023-05-25T03:38:33.473Z,101793.80
2023-05-25T03:39:34.279Z,101793.08
2023-05-25T03:40:35.012Z,101792.73
2023-05-25T03:41:35.210Z,101792.25
2023-05-25T03:42:36.157Z,101791.06
2023-05-25T03:43:36.221Z,101790.67
2023-05-25T03:44:38.324Z,101789.91
2023-05-25T03:45:36.929Z,101789.41
2023-05-25T03:46:37.997Z,101788.31
2023-05-25T03:47:38.808Z,101787.05
2023-05-25T03:48:39.434Z,101786.88
2023-05-25T03:49:40.169Z,101785.87
2023-05-25T03:50:40.193Z,101785.38
2023-05-25T03:51:40.996Z,101784.81
2023-05-25T03:52:41.721Z,101784.39
2023-05-25T03:53:42.429Z,101784.30
2023-05-25T03:54:42.530Z,101784.30
2023-05-25T03:55:43.846Z,101783.79
2023-05-25T03:56:43.594Z,101783.45
2023-05-25T03:57:44.466Z,101782.45
2023-05-25T03:58:45.163Z,101782.13
2023-05-25T03:59:45.929Z,101781.37
2023-05-25T04:00:45.878Z,101780.94
2023-05-25T04:01:45.993Z,101780.94
2023-05-25T04:01:54.662Z,101780.70
2023-05-25T04:02:55.497Z,101780.11
2023-05-25T04:03:56.142Z,101779.45
2023-05-25T04:04:56.603Z,101779.92
2023-05-25T04:05:57.326Z,101780.11
2023-05-25T04:06:58.154Z,101779.49
2023-05-25T04:07:59.099Z,101779.26
2023-05-25T04:08:59.660Z,101779.22
2023-05-25T04:10:01.329Z,101779.48
2023-05-25T04:11:00.991Z,101779.47
2023-05-25T04:12:01.562Z,101779.87
2023-05-25T04:13:02.316Z,101780.20
2023-05-25T04:14:02.987Z,101780.77
2023-05-25T04:15:03.604Z,101780.87
2023-05-25T04:16:03.811Z,101781.02
2023-05-25T04:17:04.591Z,101781.59
2023-05-25T04:18:05.423Z,101781.16
2023-05-25T04:19:05.964Z,101781.81
2023-05-25T04:20:06.802Z,101782.83
2023-05-25T04:21:07.357Z,101783.09
2023-05-25T04:22:08.000Z,101784.16
2023-05-25T04:23:09.859Z,101784.06
2023-05-25T04:24:09.536Z,101784.13
2023-05-25T04:25:10.247Z,101784.29
2023-05-25T04:26:10.862Z,101784.46
2023-05-25T04:27:11.513Z,101784.02
2023-05-25T04:28:12.118Z,101783.83
2023-05-25T04:29:12.861Z,101783.95
2023-05-25T04:30:13.613Z,101783.67
2023-05-25T04:31:14.220Z,101784.42
2023-05-25T04:32:14.833Z,101785.20
2023-05-25T04:32:24.023Z,101766.83
2023-05-25T04:33:24.446Z,101768.87
2023-05-25T04:34:24.927Z,101770.24
2023-05-25T04:35:25.389Z,101771.81
2023-05-25T04:36:25.863Z,101772.93
2023-05-25T04:37:26.335Z,101774.48
2023-05-25T04:38:27.082Z,101776.10
2023-05-25T04:39:27.717Z,101777.91
2023-05-25T04:40:29.690Z,101778.59
2023-05-25T04:41:30.313Z,101780.14
2023-05-25T04:42:29.963Z,101781.00
2023-05-25T04:43:30.968Z,101781.38
2023-05-25T04:44:31.716Z,101782.22
2023-05-25T04:45:32.551Z,101782.64
2023-05-25T04:46:33.403Z,101783.23
2023-05-25T04:47:34.245Z,101783.75
2023-05-25T04:48:34.973Z,101783.63
2023-05-25T04:49:35.641Z,101783.63
2023-05-25T04:50:35.784Z,101784.09
2023-05-25T04:51:36.515Z,101785.03
2023-05-25T04:52:37.353Z,101786.28
2023-05-25T04:53:37.655Z,101787.88
2023-05-25T04:54:38.432Z,101789.66
2023-05-25T04:55:39.363Z,101791.52
2023-05-25T04:56:40.049Z,101792.88
2023-05-25T04:57:40.956Z,101794.23
2023-05-25T04:58:41.562Z,101796.28
2023-05-25T04:59:42.209Z,101799.25
2023-05-25T05:00:42.689Z,101804.37
2023-05-25T05:01:43.346Z,101812.48
2023-05-25T05:02:44.299Z,101821.45
2023-05-25T05:02:53.182Z,101733.64
2023-05-25T05:03:53.584Z,101994.58
2023-05-25T05:04:54.307Z,101995.70
2023-05-25T05:05:54.819Z,101999.11
2023-05-25T05:06:56.139Z,102003.12
2023-05-25T05:07:55.836Z,102007.86
2023-05-25T05:08:56.686Z,102013.18
2023-05-25T05:09:57.449Z,102018.21
2023-05-25T05:10:58.231Z,102025.13
2023-05-25T05:11:58.932Z,102033.41
2023-05-25T05:12:59.732Z,102043.37
2023-05-25T05:14:00.536Z,102054.92
2023-05-25T05:15:01.447Z,102067.67
2023-05-25T05:16:02.325Z,102081.08
2023-05-25T05:17:02.767Z,102094.33
2023-05-25T05:18:03.524Z,102107.86
2023-05-25T05:19:04.579Z,102122.05
2023-05-25T05:20:05.163Z,102135.42
2023-05-25T05:21:05.826Z,102149.05
2023-05-25T05:22:06.477Z,102162.64
2023-05-25T05:23:07.119Z,102176.45
2023-05-25T05:24:07.815Z,102191.03
2023-05-25T05:25:08.406Z,102204.27
2023-05-25T05:26:08.968Z,102218.17
2023-05-25T05:27:09.667Z,102230.69
2023-05-25T05:28:10.140Z,102243.45
2023-05-25T05:29:10.520Z,102256.42
2023-05-25T05:30:10.931Z,102269.98
2023-05-25T05:31:11.492Z,102283.23
2023-05-25T05:32:11.989Z,102296.52
2023-05-25T05:33:12.827Z,102310.39
2023-05-25T05:34:13.215Z,102322.58
2023-05-25T05:34:21.804Z,101932.52
2023-05-25T05:35:22.281Z,102511.20
2023-05-25T05:36:24.179Z,102511.37
2023-05-25T05:37:23.887Z,102511.80
2023-05-25T05:38:23.976Z,102511.96
2023-05-25T05:39:24.090Z,102513.33
2023-05-25T05:40:24.737Z,102514.16
2023-05-25T05:41:25.506Z,102515.61
2023-05-25T05:42:26.112Z,102516.55
2023-05-25T05:43:26.806Z,102517.77
2023-05-25T05:44:29.332Z,102518.91
2023-05-25T05:45:28.115Z,102520.65
2023-05-25T05:46:28.876Z,102522.48
2023-05-25T05:47:29.574Z,102523.27
2023-05-25T05:48:30.171Z,102523.88
2023-05-25T05:49:30.618Z,102524.54
2023-05-25T05:50:31.484Z,102526.09
2023-05-25T05:51:32.438Z,102527.30
2023-05-25T05:52:33.234Z,102528.93
2023-05-25T05:53:33.800Z,102530.34
2023-05-25T05:54:34.308Z,102531.66
2023-05-25T05:55:34.848Z,102532.58
2023-05-25T05:56:35.435Z,102533.73
2023-05-25T05:57:35.916Z,102535.23
2023-05-25T05:58:36.740Z,102536.83
2023-05-25T05:59:37.226Z,102537.67
2023-05-25T06:00:37.749Z,102538.72
2023-05-25T06:01:38.650Z,102539.25
2023-05-25T06:02:41.488Z,102540.23
2023-05-25T06:03:39.761Z,102540.72
2023-05-25T06:04:40.242Z,102541.63
2023-05-25T06:05:40.788Z,102542.41
2023-05-25T06:05:49.485Z,101959.68
2023-05-25T06:06:49.851Z,102555.42
2023-05-25T06:07:50.306Z,102554.80
2023-05-25T06:08:50.756Z,102554.63
2023-05-25T06:09:51.154Z,102553.41
2023-05-25T06:10:51.612Z,102552.45
2023-05-25T06:11:51.592Z,102552.37
2023-05-25T06:12:52.380Z,102552.22
2023-05-25T06:13:52.889Z,102551.91
2023-05-25T06:14:53.732Z,102551.78
2023-05-25T06:15:54.253Z,102551.39
2023-05-25T06:16:54.352Z,102551.36
2023-05-25T06:17:54.530Z,102551.09
2023-05-25T06:18:55.012Z,102551.50
2023-05-25T06:19:55.629Z,102551.22
2023-05-25T06:20:56.031Z,102551.39
2023-05-25T06:21:57.990Z,102551.92
2023-05-25T06:22:57.424Z,102552.36
2023-05-25T06:23:57.954Z,102553.23
2023-05-25T06:24:58.647Z,102553.23
2023-05-25T06:26:00.275Z,102553.64
2023-05-25T06:26:59.863Z,102553.88
2023-05-25T06:28:00.300Z,102554.08
2023-05-25T06:29:01.307Z,102553.97
2023-05-25T06:30:02.006Z,102554.23
2023-05-25T06:31:02.498Z,102554.09
2023-05-25T06:32:03.045Z,102553.92
2023-05-25T06:33:03.451Z,102553.92
2023-05-25T06:34:03.968Z,102553.00
2023-05-25T06:35:04.595Z,102553.34
2023-05-25T06:36:16.329Z,101829.00
2023-05-25T06:37:16.557Z,102551.84
2023-05-25T06:38:17.237Z,102551.30
2023-05-25T06:39:17.768Z,102552.00
2023-05-25T06:40:18.473Z,102552.27
2023-05-25T06:41:19.135Z,102552.47
2023-05-25T06:42:20.050Z,102552.59
2023-05-25T06:43:20.681Z,102552.10
2023-05-25T06:44:21.321Z,102552.77
2023-05-25T06:45:22.119Z,102552.52
2023-05-25T06:46:22.342Z,102552.95
2023-05-25T06:47:22.555Z,102553.13
2023-05-25T06:48:22.662Z,102553.67
2023-05-25T06:49:23.467Z,102554.02
2023-05-25T06:50:24.241Z,102554.00
2023-05-25T06:51:25.068Z,102554.09
2023-05-25T06:52:25.867Z,102553.83
2023-05-25T06:53:26.570Z,102553.83
2023-05-25T06:54:27.258Z,102554.08
2023-05-25T06:55:27.663Z,102554.27
2023-05-25T06:56:28.302Z,102555.00
2023-05-25T06:57:28.919Z,102555.34
2023-05-25T06:58:29.586Z,102556.13
2023-05-25T06:59:30.223Z,102556.55
2023-05-25T07:00:30.889Z,102556.44
2023-05-25T07:01:31.841Z,102556.23
2023-05-25T07:02:32.333Z,102557.02
2023-05-25T07:03:33.082Z,102557.15
2023-05-25T07:04:33.466Z,102556.76
2023-05-25T07:05:33.546Z,102556.50
2023-05-25T07:06:34.429Z,102556.17
2023-05-25T07:07:34.703Z,102555.83
2023-05-25T07:07:43.314Z,101445.17
2023-05-25T07:08:44.223Z,102548.49
2023-05-25T07:09:45.674Z,102548.63
2023-05-25T07:10:45.362Z,102548.63
2023-05-25T07:11:45.574Z,102549.14
2023-05-25T07:12:46.099Z,102549.91
2023-05-25T07:13:46.619Z,102550.56
2023-05-25T07:14:47.447Z,102550.47
2023-05-25T07:15:47.938Z,102550.33
2023-05-25T07:16:47.885Z,102549.84
2023-05-25T07:17:48.194Z,102550.12
2023-05-25T07:18:48.654Z,102550.30
2023-05-25T07:19:49.141Z,102550.06
2023-05-25T07:20:49.416Z,102549.88
2023-05-25T07:21:49.510Z,102549.84
2023-05-25T07:22:49.697Z,102549.84
2023-05-25T07:23:50.391Z,102549.83
2023-05-25T07:24:50.735Z,102549.88
2023-05-25T07:25:51.016Z,102549.96
2023-05-25T07:26:51.073Z,102550.11
2023-05-25T07:27:51.255Z,102549.30
2023-05-25T07:28:53.194Z,102549.28
2023-05-25T07:29:52.962Z,102548.59
2023-05-25T07:30:53.943Z,102548.20
2023-05-25T07:31:54.599Z,102548.16
2023-05-25T07:32:55.365Z,102547.64
2023-05-25T07:33:56.091Z,102547.27
2023-05-25T07:34:56.827Z,102547.09
2023-05-25T07:35:57.768Z,102546.78
2023-05-25T07:36:57.920Z,102546.48
2023-05-25T07:37:58.840Z,102546.45
2023-05-25T07:38:59.544Z,102546.17
2023-05-25T07:40:00.210Z,102545.14
2023-05-25T07:40:08.854Z,102516.10
2023-05-25T07:41:09.340Z,102517.29
2023-05-25T07:42:09.973Z,102518.47
2023-05-25T07:43:11.594Z,102518.80
2023-05-25T07:44:11.572Z,102519.83
2023-05-25T07:45:12.399Z,102520.37
2023-05-25T07:46:13.281Z,102521.02
2023-05-25T07:47:13.507Z,102521.36
2023-05-25T07:48:14.195Z,102521.63
2023-05-25T07:49:14.914Z,102521.92
2023-05-25T07:50:15.543Z,102522.52
2023-05-25T07:51:15.532Z,102523.02
2023-05-25T07:52:16.123Z,102522.78
2023-05-25T07:53:16.835Z,102522.81
2023-05-25T07:54:17.481Z,102522.72
2023-05-25T07:55:18.312Z,102522.53
2023-05-25T07:56:19.090Z,102522.39
2023-05-25T07:57:19.830Z,102521.47
2023-05-25T07:58:20.678Z,102520.80
2023-05-25T07:59:21.665Z,102520.59
2023-05-25T08:00:22.648Z,102520.53
2023-05-25T08:01:25.536Z,102520.45
2023-05-25T08:02:24.391Z,102520.30
2023-05-25T08:03:39.741Z,102520.30
2023-05-25T08:04:24.918Z,102520.09
2023-05-25T08:05:25.525Z,102520.11
2023-05-25T08:06:26.449Z,102519.44
2023-05-25T08:07:27.283Z,102518.37
2023-05-25T08:08:28.349Z,102518.00
2023-05-25T08:09:28.186Z,102517.37
2023-05-25T08:10:29.010Z,102516.56
2023-05-25T08:10:37.693Z,101991.76
2023-05-25T08:11:38.476Z,102505.39
2023-05-25T08:12:48.830Z,102505.09
2023-05-25T08:13:39.928Z,102504.84
2023-05-25T08:14:40.703Z,102505.48
2023-05-25T08:15:41.077Z,102506.25
2023-05-25T08:16:41.123Z,102506.63
2023-05-25T08:17:42.015Z,102507.36
2023-05-25T08:18:42.292Z,102508.00
2023-05-25T08:19:43.203Z,102508.30
2023-05-25T08:20:44.104Z,102508.84
2023-05-25T08:21:44.906Z,102509.78
2023-05-25T08:22:45.623Z,102510.42
2023-05-25T08:23:46.511Z,102511.36
2023-05-25T08:24:47.400Z,102511.86
2023-05-25T08:25:48.173Z,102512.70
2023-05-25T08:26:57.121Z,102513.08
2023-05-25T08:27:49.711Z,102513.34
2023-05-25T08:28:50.597Z,102513.12
2023-05-25T08:29:51.327Z,102513.26
2023-05-25T08:30:52.204Z,102513.13
2023-05-25T08:31:52.904Z,102513.19
2023-05-25T08:32:53.014Z,102513.31
2023-05-25T08:33:53.814Z,102513.02
2023-05-25T08:34:54.627Z,102513.25
2023-05-25T08:35:55.493Z,102513.28
2023-05-25T08:36:56.471Z,102513.25
2023-05-25T08:37:57.186Z,102513.67
2023-05-25T08:38:57.240Z,102513.73
2023-05-25T08:39:58.104Z,102513.44
2023-05-25T08:40:58.978Z,102513.66
2023-05-25T08:42:00.820Z,102514.12
2023-05-25T08:42:09.426Z,101989.09
2023-05-25T08:43:11.068Z,102514.59
2023-05-25T08:45:30.365Z,102178.20
2023-05-25T08:46:22.960Z,102519.58
2023-05-25T08:47:16.719Z,102519.16
2023-05-25T08:48:27.292Z,102518.69
2023-05-25T08:49:16.930Z,102518.69
2023-05-25T08:50:17.685Z,102518.94
2023-05-25T08:51:17.693Z,102518.81
2023-05-25T08:52:18.438Z,102519.19
2023-05-25T08:53:19.135Z,102518.88
2023-05-25T08:54:19.430Z,102518.96
2023-05-25T08:55:20.209Z,102519.13
2023-05-25T08:56:20.940Z,102519.11
2023-05-25T08:57:21.612Z,102519.23
2023-05-25T08:58:22.075Z,102519.22
2023-05-25T08:59:23.002Z,102518.73
2023-05-25T09:00:23.747Z,102518.17
2023-05-25T09:01:24.644Z,102517.89
2023-05-25T09:02:25.040Z,102517.20
2023-05-25T09:03:25.926Z,102517.44
2023-05-25T09:04:26.707Z,102517.38
2023-05-25T09:05:27.549Z,102516.73
2023-05-25T09:06:28.195Z,102516.88
2023-05-25T09:07:28.958Z,102516.80
2023-05-25T09:08:29.321Z,102516.36
2023-05-25T09:09:29.486Z,102516.09
2023-05-25T09:10:30.343Z,102515.73
2023-05-25T09:11:38.874Z,102516.16
2023-05-25T09:12:31.841Z,102516.07
2023-05-25T09:13:32.583Z,102516.12
2023-05-25T09:14:33.277Z,102515.97
2023-05-25T09:15:34.109Z,102516.02
2023-05-25T09:16:34.868Z,102516.14
2023-05-25T09:16:46.563Z,101969.23
2023-05-25T09:17:47.264Z,102522.20
2023-05-25T09:18:48.072Z,102521.22
2023-05-25T09:19:48.730Z,102521.09
2023-05-25T09:20:49.913Z,102520.81
2023-05-25T09:21:52.930Z,102520.20
2023-05-25T09:22:50.901Z,102520.12
2023-05-25T09:23:50.926Z,102519.77
2023-05-25T09:24:50.965Z,102519.12
2023-05-25T09:25:51.754Z,102518.98
2023-05-25T09:26:52.519Z,102519.40
2023-05-25T09:27:53.358Z,102519.27
2023-05-25T09:28:54.219Z,102519.32
2023-05-25T09:29:55.114Z,102519.11
2023-05-25T09:30:55.866Z,102519.20
2023-05-25T09:31:56.910Z,102518.78
2023-05-25T09:32:57.691Z,102517.83
2023-05-25T09:33:58.528Z,102516.09
2023-05-25T09:34:59.416Z,102515.86
2023-05-25T09:36:00.240Z,102515.32
2023-05-25T09:37:02.229Z,102514.66
2023-05-25T09:38:02.442Z,102514.08
2023-05-25T09:39:03.072Z,102513.66
2023-05-25T09:40:03.044Z,102512.81
2023-05-25T09:41:03.949Z,102512.52
2023-05-25T09:42:04.856Z,102512.22
2023-05-25T09:43:05.592Z,102511.58
2023-05-25T09:44:11.273Z,102511.24
2023-05-25T09:45:06.950Z,102510.02
2023-05-25T09:46:07.756Z,102509.48
2023-05-25T09:47:08.456Z,102509.03
2023-05-25T09:48:09.414Z,102508.36
2023-05-25T09:49:09.968Z,102507.53
2023-05-25T09:49:18.602Z,101876.00
2023-05-25T09:50:19.609Z,102496.23
2023-05-25T09:51:20.230Z,102496.61
2023-05-25T09:52:21.020Z,102497.02
2023-05-25T09:53:21.782Z,102496.89
2023-05-25T09:54:22.513Z,102497.12
2023-05-25T09:55:23.385Z,102496.75
2023-05-25T09:56:24.092Z,102496.59
2023-05-25T09:57:24.451Z,102496.66
2023-05-25T09:58:25.285Z,102496.05
2023-05-25T09:59:25.461Z,102495.77
2023-05-25T10:00:26.348Z,102495.58
2023-05-25T10:01:27.095Z,102495.67
2023-05-25T10:02:27.789Z,102495.95
2023-05-25T10:03:28.538Z,102495.69
2023-05-25T10:04:29.182Z,102495.83
2023-05-25T10:05:29.858Z,102494.95
2023-05-25T10:06:30.778Z,102494.91
2023-05-25T10:07:31.480Z,102494.84
2023-05-25T10:08:34.198Z,102494.70
2023-05-25T10:09:32.872Z,102494.16
2023-05-25T10:10:33.709Z,102494.00
2023-05-25T10:11:34.353Z,102493.69
2023-05-25T10:12:35.133Z,102493.58
2023-05-25T10:13:35.797Z,102493.33
2023-05-25T10:14:35.971Z,102493.30
2023-05-25T10:15:36.802Z,102492.95
2023-05-25T10:16:37.729Z,102492.94
2023-05-25T10:17:38.409Z,102492.10
2023-05-25T10:18:39.061Z,102491.67
2023-05-25T10:19:39.739Z,102491.59
2023-05-25T10:20:40.634Z,102490.92
2023-05-25T10:21:41.437Z,102490.11
2023-05-25T10:21:50.063Z,101647.83
2023-05-25T10:22:51.040Z,102475.59
2023-05-25T10:23:52.946Z,102475.71
2023-05-25T10:24:52.678Z,102476.08
2023-05-25T10:25:53.456Z,102476.80
2023-05-25T10:26:53.444Z,102477.67
2023-05-25T10:27:54.529Z,102478.16
2023-05-25T10:28:54.790Z,102478.51
2023-05-25T10:29:55.553Z,102478.73
2023-05-25T10:30:56.424Z,102478.70
2023-05-25T10:31:57.321Z,102478.66
2023-05-25T10:32:58.124Z,102479.38
2023-05-25T10:33:58.875Z,102479.45
2023-05-25T10:34:59.732Z,102479.31
2023-05-25T10:36:09.281Z,102479.68
2023-05-25T10:37:01.513Z,102479.45
2023-05-25T10:38:02.325Z,102479.88
2023-05-25T10:39:03.294Z,102480.19
2023-05-25T10:40:03.951Z,102480.36
2023-05-25T10:41:04.929Z,102480.35
2023-05-25T10:42:05.711Z,102479.90
2023-05-25T10:43:06.207Z,102479.42
2023-05-25T10:44:06.226Z,102479.58
2023-05-25T10:45:07.166Z,102479.48
2023-05-25T10:46:08.057Z,102479.68
2023-05-25T10:47:08.959Z,102479.57
2023-05-25T10:48:09.856Z,102479.65
2023-05-25T10:49:09.936Z,102479.50
2023-05-25T10:50:10.291Z,102479.69
2023-05-25T10:51:12.184Z,102479.38
2023-05-25T10:52:11.729Z,102478.92
2023-05-25T10:53:12.517Z,102478.72
2023-05-25T10:53:21.166Z,101808.11
2023-05-25T10:54:21.958Z,102468.65
2023-05-25T10:55:22.698Z,102468.02
2023-05-25T10:56:23.506Z,102467.95
2023-05-25T10:57:24.421Z,102467.48
2023-05-25T10:58:25.292Z,102467.33
2023-05-25T10:59:25.911Z,102467.14
2023-05-25T11:00:27.254Z,102467.78
2023-05-25T11:01:26.306Z,102467.73
2023-05-25T11:02:27.143Z,102467.91
2023-05-25T11:03:27.862Z,102467.98
2023-05-25T11:04:28.688Z,102468.62
2023-05-25T11:05:29.301Z,102468.41
2023-05-25T11:06:30.194Z,102467.95
2023-05-25T11:07:31.145Z,102467.90
2023-05-25T11:08:31.969Z,102467.33
2023-05-25T11:09:32.805Z,102466.63
2023-05-25T11:10:33.587Z,102465.97
2023-05-25T11:11:33.620Z,102464.93
2023-05-25T11:12:35.660Z,102464.49
2023-05-25T11:13:37.010Z,102463.85
2023-05-25T11:14:36.274Z,102462.88
2023-05-25T11:15:36.744Z,102462.23
2023-05-25T11:16:37.741Z,102462.05